Time;durP1;ratioP1;P1;durP2;ratioP2;P2;SDS_P1;SDS_P2;PMS_P1;PMS_P2;Temp;Humidity;BMP_temperature;BMP_pressure;BME280_temperature;BME280_humidity;BME280_pressure;Samples;Min_cycle;Max_cycle;Signal;HPM_P1;HPM_P2
2021/10/06 00:02:07;;;;;;;12.50;10.40;;;12.80;90.10;;;;;;5073250;28;20260;-91
2021/10/06 00:04:32;;;;;;;10.53;9.50;;;12.70;90.10;;;;;;5074271;28;20175;-90
2021/10/06 00:06:58;;;;;;;12.93;11.53;;;12.80;90.10;;;;;;5073449;28;20647;-91
2021/10/06 00:09:24;;;;;;;11.00;9.90;;;12.70;90.10;;;;;;5073303;28;20675;-91
2021/10/06 00:11:49;;;;;;;14.10;10.67;;;12.70;90.10;;;;;;5073231;28;20179;-91
2021/10/06 00:14:15;;;;;;;17.43;11.60;;;12.80;90.00;;;;;;5074207;28;20209;-91
2021/10/06 00:16:41;;;;;;;11.33;10.13;;;12.80;89.90;;;;;;5072809;28;20176;-90
2021/10/06 00:19:07;;;;;;;14.17;9.80;;;12.70;90.10;;;;;;5073467;28;20667;-91
2021/10/06 00:21:33;;;;;;;13.07;10.80;;;12.80;90.00;;;;;;5073609;28;20258;-91
2021/10/06 00:23:59;;;;;;;10.30;9.20;;;12.80;90.00;;;;;;5073822;28;20242;-91
2021/10/06 00:26:25;;;;;;;11.90;9.90;;;12.70;90.00;;;;;;5072594;28;20201;-91
2021/10/06 00:28:50;;;;;;;14.77;10.70;;;12.70;90.10;;;;;;5073710;28;20202;-91
2021/10/06 00:31:16;;;;;;;14.60;11.87;;;12.70;90.10;;;;;;5072811;28;20248;-90
2021/10/06 00:33:42;;;;;;;13.30;11.90;;;12.80;90.00;;;;;;5072347;28;20206;-90
2021/10/06 00:36:09;;;;;;;15.40;12.90;;;12.70;89.90;;;;;;5073669;28;20168;-90
2021/10/06 00:38:35;;;;;;;12.83;11.00;;;12.70;90.00;;;;;;5072300;28;20290;-90
2021/10/06 00:41:02;;;;;;;12.43;11.13;;;12.70;90.00;;;;;;5072371;28;20262;-91
2021/10/06 00:43:29;;;;;;;15.80;11.67;;;12.70;90.00;;;;;;5072441;28;20187;-91
2021/10/06 00:45:55;;;;;;;12.83;11.37;;;12.80;89.90;;;;;;5073628;28;20175;-91
2021/10/06 00:48:21;;;;;;;14.90;11.47;;;12.80;89.80;;;;;;5072250;28;20564;-91
2021/10/06 00:50:47;;;;;;;17.47;11.57;;;12.70;90.00;;;;;;5072596;28;20262;-91
2021/10/06 00:53:13;;;;;;;15.17;11.80;;;12.70;90.00;;;;;;5073380;28;20276;-91
2021/10/06 00:55:39;;;;;;;15.37;12.00;;;12.70;90.10;;;;;;5073546;28;20194;-91
2021/10/06 00:58:05;;;;;;;12.73;11.43;;;12.70;90.00;;;;;;5072246;28;20195;-90
2021/10/06 01:00:30;;;;;;;15.30;13.60;;;12.70;89.90;;;;;;5073637;28;20163;-90
2021/10/06 01:02:56;;;;;;;17.90;12.93;;;12.70;89.90;;;;;;5072201;28;20176;-90
2021/10/06 01:05:22;;;;;;;15.77;12.40;;;12.70;89.90;;;;;;5073421;28;20225;-91
2021/10/06 01:07:48;;;;;;;13.63;11.53;;;12.60;89.90;;;;;;5072158;28;20175;-91
2021/10/06 01:10:13;;;;;;;19.03;13.00;;;12.70;89.80;;;;;;5073583;28;20179;-91
2021/10/06 01:12:40;;;;;;;16.30;12.13;;;12.60;89.90;;;;;;5073290;28;20174;-91
2021/10/06 01:15:12;;;;;;;15.47;12.43;;;12.60;89.90;;;;;;5073192;28;20287;-91
2021/10/06 01:17:39;;;;;;;13.40;11.83;;;12.60;89.90;;;;;;5073466;28;20202;-90
2021/10/06 01:20:06;;;;;;;15.33;11.93;;;12.50;89.90;;;;;;5072422;28;20222;-91
2021/10/06 01:22:32;;;;;;;13.20;11.73;;;12.50;90.00;;;;;;5073482;28;20516;-91
2021/10/06 01:25:01;;;;;;;16.93;12.43;;;12.50;90.10;;;;;;5073098;28;20178;-91
2021/10/06 01:27:27;;;;;;;21.13;12.83;;;12.40;90.10;;;;;;5072029;28;20182;-91
2021/10/06 01:29:53;;;;;;;16.23;11.87;;;12.30;90.00;;;;;;5073186;28;20187;-91
2021/10/06 01:32:19;;;;;;;16.83;11.70;;;12.40;90.00;;;;;;5076095;28;20673;-91
2021/10/06 01:34:59;;;;;;;14.20;11.20;;;12.30;89.90;;;;;;5077115;28;20187;-91
2021/10/06 01:37:26;;;;;;;13.17;11.80;;;12.30;89.90;;;;;;5077205;28;20167;-91
2021/10/06 01:39:52;;;;;;;16.40;12.10;;;12.30;89.80;;;;;;5075896;28;20651;-90
2021/10/06 01:42:17;;;;;;;19.33;11.67;;;12.20;89.80;;;;;;5076937;28;20172;-90
2021/10/06 01:44:43;;;;;;;14.67;11.37;;;12.20;89.70;;;;;;5075661;28;20228;-91
2021/10/06 01:47:09;;;;;;;16.97;10.70;;;12.20;89.50;;;;;;5076853;28;20220;-91
2021/10/06 01:49:34;;;;;;;15.37;12.00;;;12.10;89.70;;;;;;5076769;28;20249;-91
2021/10/06 01:52:01;;;;;;;13.63;11.63;;;12.10;89.70;;;;;;5075552;28;20178;-91
2021/10/06 01:54:27;;;;;;;12.97;11.20;;;12.00;89.60;;;;;;5075567;28;20203;-90
2021/10/06 01:56:52;;;;;;;15.87;12.07;;;12.00;89.70;;;;;;5075508;28;20646;-91
2021/10/06 01:59:19;;;;;;;14.13;10.93;;;12.00;89.30;;;;;;5075362;28;20712;-90
2021/10/06 02:01:45;;;;;;;13.50;11.53;;;12.00;89.30;;;;;;5076556;28;20167;-91
2021/10/06 02:04:10;;;;;;;22.70;12.87;;;11.90;89.20;;;;;;5075392;28;20262;-91
2021/10/06 02:06:36;;;;;;;15.83;12.57;;;12.00;89.20;;;;;;5076510;28;20199;-91
2021/10/06 02:09:02;;;;;;;22.17;11.97;;;12.00;89.00;;;;;;5076695;28;20683;-91
2021/10/06 02:11:28;;;;;;;21.13;12.83;;;12.00;89.10;;;;;;5076361;28;20643;-90
2021/10/06 02:13:53;;;;;;;14.80;11.47;;;12.00;89.00;;;;;;5075092;28;20204;-90
2021/10/06 02:16:19;;;;;;;14.77;11.73;;;12.00;89.00;;;;;;5075771;28;20175;-91
2021/10/06 02:18:45;;;;;;;15.70;12.10;;;12.00;89.10;;;;;;5076260;28;20191;-91
2021/10/06 02:21:11;;;;;;;15.07;11.10;;;12.00;89.10;;;;;;5076133;28;20194;-91
2021/10/06 02:23:36;;;;;;;20.63;12.73;;;12.10;88.80;;;;;;5076313;28;20648;-91
2021/10/06 02:26:02;;;;;;;14.00;10.97;;;12.10;88.70;;;;;;5074994;28;20625;-90
2021/10/06 02:28:28;;;;;;;15.40;11.30;;;12.20;88.60;;;;;;5075129;28;20264;-91
2021/10/06 02:30:54;;;;;;;14.10;10.47;;;12.10;88.70;;;;;;5074827;28;20171;-91
2021/10/06 02:33:20;;;;;;;13.70;10.50;;;12.20;88.40;;;;;;5075911;28;20218;-91
2021/10/06 02:35:46;;;;;;;10.23;8.33;;;12.20;88.30;;;;;;5074887;28;20210;-91
2021/10/06 02:38:11;;;;;;;11.37;9.57;;;12.30;87.20;;;;;;5074637;28;20191;-91
2021/10/06 02:40:37;;;;;;;12.73;9.70;;;12.30;87.60;;;;;;5074619;28;20266;-90
2021/10/06 02:43:03;;;;;;;14.23;10.17;;;12.30;88.20;;;;;;5074848;28;20175;-90
2021/10/06 02:45:28;;;;;;;12.40;9.67;;;12.30;88.20;;;;;;5075733;28;20636;-90
2021/10/06 02:47:54;;;;;;;14.83;10.27;;;12.30;87.50;;;;;;5074509;28;20171;-90
2021/10/06 02:50:23;;;;;;;13.20;11.03;;;12.30;87.30;;;;;;5074649;28;20167;-90
2021/10/06 02:52:50;;;;;;;14.97;11.23;;;12.30;87.40;;;;;;5075654;28;20650;-90
2021/10/06 02:55:16;;;;;;;16.47;11.47;;;12.20;87.40;;;;;;5074316;28;20666;-90
2021/10/06 02:57:41;;;;;;;15.53;11.53;;;12.20;87.30;;;;;;5075503;28;20174;-91
2021/10/06 03:00:09;;;;;;;14.73;11.30;;;12.20;87.40;;;;;;5075505;28;20599;-91
2021/10/06 03:02:41;;;;;;;12.53;11.23;;;12.20;87.60;;;;;;5075479;28;20195;-90
2021/10/06 03:05:09;;;;;;;13.77;11.50;;;12.20;87.80;;;;;;5074083;28;20679;-90
2021/10/06 03:07:36;;;;;;;14.97;11.63;;;12.10;87.60;;;;;;5074122;28;20183;-91
2021/10/06 03:10:02;;;;;;;15.77;11.70;;;12.10;87.50;;;;;;5074331;28;20262;-90
2021/10/06 03:12:27;;;;;;;16.53;11.50;;;12.10;87.60;;;;;;5074073;28;20282;-91
2021/10/06 03:14:53;;;;;;;15.13;9.37;;;12.00;87.60;;;;;;5075122;28;20270;-90
2021/10/06 03:17:18;;;;;;;13.47;9.53;;;12.00;87.30;;;;;;5075226;28;20198;-90
2021/10/06 03:19:44;;;;;;;19.60;11.53;;;11.90;87.30;;;;;;5073903;28;20763;-90
2021/10/06 03:22:10;;;;;;;17.23;12.23;;;11.90;87.40;;;;;;5075051;28;20639;-90
2021/10/06 03:24:35;;;;;;;17.13;11.70;;;11.80;87.70;;;;;;5075028;28;20171;-90
2021/10/06 03:27:01;;;;;;;16.93;11.03;;;11.80;87.80;;;;;;5075287;28;20593;-90
2021/10/06 03:29:28;;;;;;;16.80;11.10;;;11.70;87.90;;;;;;5073586;28;20248;-91
2021/10/06 03:31:54;;;;;;;18.00;10.83;;;11.70;87.80;;;;;;5073687;28;20175;-90
2021/10/06 03:34:19;;;;;;;17.47;11.33;;;11.70;88.10;;;;;;5073858;28;20293;-90
2021/10/06 03:36:45;;;;;;;14.20;10.80;;;11.60;88.30;;;;;;5073554;28;20210;-90
2021/10/06 03:39:11;;;;;;;14.53;10.90;;;11.50;88.40;;;;;;5073437;28;20227;-91
2021/10/06 03:41:36;;;;;;;14.83;11.30;;;11.60;88.30;;;;;;5074723;28;20163;-91
2021/10/06 03:44:02;;;;;;;14.50;10.23;;;11.50;88.60;;;;;;5074579;28;20172;-90
2021/10/06 03:46:28;;;;;;;19.97;11.43;;;11.30;88.80;;;;;;5073791;28;20198;-90
2021/10/06 03:48:53;;;;;;;16.33;10.57;;;11.30;88.90;;;;;;5073360;28;20195;-90
2021/10/06 03:51:19;;;;;;;19.40;11.73;;;11.30;89.20;;;;;;5073299;28;20186;-91
2021/10/06 03:53:45;;;;;;;18.10;12.07;;;11.20;89.20;;;;;;5073352;28;20202;-91
2021/10/06 03:56:11;;;;;;;18.47;13.23;;;11.20;89.30;;;;;;5073185;28;20175;-91
2021/10/06 03:58:36;;;;;;;18.30;12.13;;;11.20;89.40;;;;;;5073600;28;20248;-91
2021/10/06 04:01:03;;;;;;;20.10;12.20;;;11.20;89.40;;;;;;5074356;28;20199;-90
2021/10/06 04:03:28;;;;;;;18.80;12.23;;;11.10;89.60;;;;;;5073688;28;20175;-90
2021/10/06 04:05:54;;;;;;;20.03;11.77;;;11.10;89.60;;;;;;5073205;28;20186;-90
2021/10/06 04:08:20;;;;;;;18.30;11.37;;;11.10;89.60;;;;;;5073223;28;20217;-91
2021/10/06 04:10:46;;;;;;;18.37;11.37;;;11.10;89.50;;;;;;5072854;28;20643;-91
2021/10/06 04:13:12;;;;;;;18.27;12.00;;;11.20;89.40;;;;;;5073666;28;20171;-90
2021/10/06 04:15:37;;;;;;;22.10;12.67;;;11.10;89.50;;;;;;5074003;28;20655;-90
2021/10/06 04:18:05;;;;;;;16.50;11.43;;;11.00;89.50;;;;;;5072790;28;20202;-91
2021/10/06 04:20:32;;;;;;;15.93;10.03;;;11.10;89.50;;;;;;5074204;28;20302;-90
2021/10/06 04:22:57;;;;;;;16.00;11.43;;;11.00;89.30;;;;;;5073077;28;20538;-90
2021/10/06 04:25:23;;;;;;;16.53;11.03;;;11.00;89.30;;;;;;5072606;28;20178;-90
2021/10/06 04:27:49;;;;;;;18.20;11.73;;;11.00;89.40;;;;;;5072493;28;20267;-90
2021/10/06 04:30:15;;;;;;;16.53;11.07;;;10.90;89.40;;;;;;5072583;28;20198;-90
2021/10/06 04:32:41;;;;;;;14.73;10.57;;;10.90;89.50;;;;;;5072767;28;20182;-91
2021/10/06 04:35:07;;;;;;;16.10;10.13;;;10.80;89.50;;;;;;5072335;28;20203;-90
2021/10/06 04:37:33;;;;;;;24.00;10.43;;;10.80;89.60;;;;;;5072519;28;20175;-90
2021/10/06 04:39:58;;;;;;;20.63;12.17;;;10.80;89.60;;;;;;5072305;28;20282;-90
2021/10/06 04:42:24;;;;;;;14.37;10.87;;;10.80;89.70;;;;;;5072392;28;20226;-91
2021/10/06 04:44:50;;;;;;;14.33;10.87;;;10.80;89.70;;;;;;5072356;28;20172;-90
2021/10/06 04:47:15;;;;;;;19.67;11.40;;;10.70;89.70;;;;;;5073564;28;20527;-90
2021/10/06 04:49:41;;;;;;;21.90;9.47;;;10.70;89.70;;;;;;5073520;28;20532;-90
2021/10/06 04:52:06;;;;;;;18.20;10.27;;;10.70;89.60;;;;;;5073622;28;20167;-91
2021/10/06 04:54:32;;;;;;;22.80;12.67;;;10.70;89.60;;;;;;5072240;28;20206;-90
2021/10/06 04:56:58;;;;;;;14.53;10.20;;;10.70;89.50;;;;;;5073746;28;20175;-90
2021/10/06 04:59:23;;;;;;;14.77;10.37;;;10.70;89.50;;;;;;5073431;28;20218;-90
2021/10/06 05:01:49;;;;;;;18.97;11.40;;;10.70;89.60;;;;;;5072869;28;20175;-90
2021/10/06 05:04:15;;;;;;;17.20;11.30;;;10.70;89.70;;;;;;5073250;28;20179;-90
2021/10/06 05:06:40;;;;;;;18.30;11.27;;;10.80;89.60;;;;;;5072700;28;20265;-91
2021/10/06 05:09:06;;;;;;;15.73;10.83;;;10.70;89.60;;;;;;5072929;28;20289;-90
2021/10/06 05:11:32;;;;;;;16.43;11.13;;;10.70;89.60;;;;;;5073585;28;20179;-91
2021/10/06 05:13:58;;;;;;;20.40;12.43;;;10.70;89.70;;;;;;5073378;28;20210;-91
2021/10/06 05:16:25;;;;;;;18.03;11.40;;;10.70;89.70;;;;;;5073450;28;20172;-91
2021/10/06 05:18:50;;;;;;;13.63;12.03;;;10.60;89.70;;;;;;5073785;28;20289;-91
2021/10/06 05:21:16;;;;;;;19.53;12.23;;;10.60;89.90;;;;;;5073196;28;20241;-91
2021/10/06 05:23:42;;;;;;;19.93;12.63;;;10.60;89.90;;;;;;5073481;28;20190;-90
2021/10/06 05:26:08;;;;;;;17.37;13.33;;;10.50;90.10;;;;;;5073526;28;20635;-90
2021/10/06 05:28:34;;;;;;;24.57;13.67;;;10.50;90.30;;;;;;5072742;28;20199;-90
2021/10/06 05:30:59;;;;;;;20.07;13.07;;;10.50;90.20;;;;;;5074192;28;20187;-89
2021/10/06 05:33:25;;;;;;;22.67;13.03;;;10.50;90.20;;;;;;5074359;28;20607;-89
2021/10/06 05:35:51;;;;;;;15.30;13.17;;;10.50;90.20;;;;;;5073878;28;20548;-90
2021/10/06 05:38:17;;;;;;;20.27;13.73;;;10.50;90.20;;;;;;5072532;28;20202;-90
2021/10/06 05:40:42;;;;;;;19.07;13.40;;;10.50;90.30;;;;;;5072701;28;20236;-90
2021/10/06 05:43:12;;;;;;;20.53;14.40;;;10.50;90.40;;;;;;5073616;28;20172;-90
2021/10/06 05:45:38;;;;;;;16.40;13.47;;;10.60;90.40;;;;;;5072652;28;20172;-90
2021/10/06 05:48:06;;;;;;;17.43;13.17;;;10.60;90.30;;;;;;5072717;28;20209;-90
2021/10/06 05:50:32;;;;;;;20.77;13.87;;;10.60;90.30;;;;;;5072826;28;20221;-90
2021/10/06 05:52:59;;;;;;;20.23;14.00;;;10.60;90.30;;;;;;5073057;28;20175;-90
2021/10/06 05:55:24;;;;;;;22.13;14.63;;;10.50;90.40;;;;;;5072673;28;20274;-90
2021/10/06 05:57:50;;;;;;;17.77;14.00;;;10.50;90.50;;;;;;5073018;28;20207;-90
2021/10/06 06:00:16;;;;;;;19.83;15.00;;;10.50;90.60;;;;;;5073228;28;20191;-90
2021/10/06 06:02:46;;;;;;;19.87;13.80;;;10.50;90.50;;;;;;5072963;28;20244;-90
2021/10/06 06:05:15;;;;;;;21.07;13.63;;;10.50;90.60;;;;;;5073346;28;20202;-90
2021/10/06 06:07:41;;;;;;;19.83;13.60;;;10.50;90.50;;;;;;5073724;28;20172;-89
2021/10/06 06:10:08;;;;;;;22.60;14.80;;;10.50;90.50;;;;;;5073602;28;20258;-90
2021/10/06 06:12:34;;;;;;;22.20;14.33;;;10.50;90.50;;;;;;5073467;28;20670;-90
2021/10/06 06:15:00;;;;;;;21.93;14.13;;;10.50;90.60;;;;;;5075072;28;20195;-91
2021/10/06 06:17:26;;;;;;;18.70;14.33;;;10.50;90.50;;;;;;5073889;28;20178;-90
2021/10/06 06:19:51;;;;;;;15.63;13.67;;;10.60;90.50;;;;;;5076864;28;20202;-90
2021/10/06 06:22:17;;;;;;;25.30;15.00;;;10.50;90.50;;;;;;5077086;28;20194;-91
2021/10/06 06:24:43;;;;;;;23.60;14.80;;;10.50;90.60;;;;;;5076597;28;20171;-90
2021/10/06 06:27:09;;;;;;;23.17;15.13;;;10.60;90.60;;;;;;5075873;28;20548;-89
2021/10/06 06:29:36;;;;;;;20.13;15.67;;;10.60;90.60;;;;;;5076549;28;20195;-89
2021/10/06 06:32:02;;;;;;;19.37;14.47;;;10.60;90.70;;;;;;5075477;28;20549;-90
2021/10/06 06:34:28;;;;;;;16.13;14.13;;;10.70;90.60;;;;;;5075869;28;20206;-89
2021/10/06 06:36:53;;;;;;;23.37;15.20;;;10.70;90.40;;;;;;5075644;28;20171;-88
2021/10/06 06:39:19;;;;;;;20.10;13.83;;;10.70;90.40;;;;;;5076564;28;20213;-89
2021/10/06 06:41:45;;;;;;;18.93;13.23;;;10.80;90.20;;;;;;5075563;28;20258;-90
2021/10/06 06:44:11;;;;;;;15.63;13.57;;;10.80;90.00;;;;;;5075570;28;20228;-89
2021/10/06 06:46:37;;;;;;;23.13;14.50;;;10.90;90.00;;;;;;5075890;28;20190;-89
2021/10/06 06:49:03;;;;;;;18.20;13.50;;;10.80;89.90;;;;;;5075634;28;20234;-89
2021/10/06 06:51:30;;;;;;;21.43;13.97;;;10.80;89.90;;;;;;5075094;28;20178;-89
2021/10/06 06:53:55;;;;;;;18.20;13.73;;;10.90;89.90;;;;;;5076251;28;20202;-89
2021/10/06 06:56:22;;;;;;;20.63;14.30;;;10.90;89.70;;;;;;5075008;28;20175;-88
2021/10/06 06:58:49;;;;;;;16.93;12.53;;;11.00;89.60;;;;;;5074457;28;20611;-88
2021/10/06 07:01:17;;;;;;;21.00;12.93;;;11.00;89.70;;;;;;5074565;28;20175;-88
2021/10/06 07:03:43;;;;;;;17.20;12.40;;;11.10;89.80;;;;;;5075781;28;20179;-88
2021/10/06 07:06:09;;;;;;;15.40;12.13;;;11.10;89.60;;;;;;5074544;28;20171;-89
2021/10/06 07:08:35;;;;;;;18.77;13.20;;;11.10;89.70;;;;;;5074268;28;20574;-89
2021/10/06 07:11:01;;;;;;;17.07;12.27;;;11.10;89.40;;;;;;5074751;28;20187;-89
2021/10/06 07:13:27;;;;;;;17.53;13.33;;;11.20;89.30;;;;;;5075486;28;20293;-89
2021/10/06 07:15:53;;;;;;;19.50;11.23;;;11.20;89.00;;;;;;5075443;28;20512;-88
2021/10/06 07:18:19;;;;;;;18.67;10.97;;;11.20;88.50;;;;;;5075657;28;20274;-88
2021/10/06 07:20:44;;;;;;;17.07;10.43;;;11.30;88.50;;;;;;5074426;28;20526;-89
2021/10/06 07:23:10;;;;;;;15.47;10.20;;;11.30;88.40;;;;;;5075863;28;20232;-90
2021/10/06 07:25:37;;;;;;;13.63;9.47;;;11.30;88.30;;;;;;5074506;28;20186;-90
2021/10/06 07:28:03;;;;;;;16.53;9.27;;;11.40;88.10;;;;;;5075815;28;20185;-90
2021/10/06 07:30:29;;;;;;;17.10;9.50;;;11.40;88.00;;;;;;5074404;28;20171;-90
2021/10/06 07:32:54;;;;;;;16.53;8.60;;;11.40;87.80;;;;;;5076110;28;20175;-90
2021/10/06 07:35:20;;;;;;;15.43;10.00;;;11.50;87.80;;;;;;5075913;28;20206;-90
2021/10/06 07:37:46;;;;;;;14.57;8.63;;;11.50;87.30;;;;;;5074484;28;20179;-90
2021/10/06 07:40:12;;;;;;;13.93;8.87;;;11.50;87.30;;;;;;5074460;28;20175;-90
2021/10/06 07:42:38;;;;;;;15.67;7.03;;;11.60;87.00;;;;;;5074307;28;20213;-90
2021/10/06 07:45:04;;;;;;;13.47;8.87;;;11.60;86.40;;;;;;5074469;28;20654;-90
2021/10/06 07:47:30;;;;;;;15.80;8.87;;;11.70;86.90;;;;;;5074130;28;20179;-90
2021/10/06 07:49:56;;;;;;;16.60;8.27;;;11.80;86.60;;;;;;5074215;28;20221;-90
2021/10/06 07:52:22;;;;;;;14.77;7.63;;;11.80;86.40;;;;;;5075447;28;20182;-90
2021/10/06 07:54:47;;;;;;;15.17;7.53;;;11.80;86.30;;;;;;5074509;28;20202;-90
2021/10/06 07:57:14;;;;;;;10.33;6.83;;;11.90;86.60;;;;;;5074509;28;20214;-90
2021/10/06 07:59:40;;;;;;;12.00;7.27;;;12.00;86.00;;;;;;5074330;28;20215;-90
2021/10/06 08:02:05;;;;;;;8.83;5.73;;;12.00;86.20;;;;;;5073863;28;20179;-90
2021/10/06 08:04:31;;;;;;;8.07;6.20;;;12.10;85.30;;;;;;5074282;28;20260;-90
2021/10/06 08:06:57;;;;;;;10.03;6.53;;;12.20;85.60;;;;;;5057814;28;20179;-90
2021/10/06 08:09:23;;;;;;;15.53;6.30;;;12.30;85.30;;;;;;5074282;28;20202;-90
2021/10/06 08:11:49;;;;;;;13.27;6.30;;;12.30;85.30;;;;;;5074428;28;20270;-90
2021/10/06 08:14:15;;;;;;;8.47;4.90;;;12.30;84.00;;;;;;5074343;28;20235;-90
2021/10/06 08:16:40;;;;;;;10.20;4.50;;;12.40;83.50;;;;;;5074135;28;20263;-89
2021/10/06 08:19:06;;;;;;;8.47;4.47;;;12.50;83.60;;;;;;5073608;28;20576;-89
2021/10/06 08:21:32;;;;;;;8.13;4.83;;;12.50;83.30;;;;;;5074078;28;20199;-89
2021/10/06 08:23:57;;;;;;;8.50;3.50;;;12.50;83.40;;;;;;5073729;28;20555;-90
2021/10/06 08:26:24;;;;;;;9.00;4.30;;;12.70;82.60;;;;;;5073752;28;20186;-89
2021/10/06 08:28:49;;;;;;;9.40;4.30;;;12.70;82.80;;;;;;5073287;28;20222;-90
2021/10/06 08:31:15;;;;;;;5.40;4.43;;;12.70;81.70;;;;;;5073339;28;20171;-91
2021/10/06 08:33:41;;;;;;;6.43;3.90;;;12.70;82.50;;;;;;5073748;28;20569;-91
2021/10/06 08:36:06;;;;;;;6.97;4.37;;;12.80;81.60;;;;;;5073699;28;20685;-91
2021/10/06 08:38:34;;;;;;;7.87;4.23;;;12.90;81.70;;;;;;5073513;28;20195;-91
2021/10/06 08:41:00;;;;;;;4.70;4.07;;;12.90;81.80;;;;;;5073243;28;20176;-90
2021/10/06 08:43:26;;;;;;;13.57;5.10;;;12.90;81.20;;;;;;5073771;28;20825;-90
2021/10/06 08:45:51;;;;;;;5.97;3.67;;;12.90;81.10;;;;;;5074940;28;20560;-90
2021/10/06 08:48:17;;;;;;;11.13;4.23;;;13.00;80.90;;;;;;5073583;28;20291;-90
2021/10/06 08:50:43;;;;;;;6.20;3.07;;;13.10;81.10;;;;;;5074531;28;20194;-89
2021/10/06 08:53:09;;;;;;;5.43;3.37;;;13.10;80.70;;;;;;5073932;28;20220;-90
2021/10/06 08:55:35;;;;;;;5.57;3.30;;;13.20;79.60;;;;;;5073227;28;20276;-90
2021/10/06 08:58:06;;;;;;;4.90;3.10;;;13.10;79.30;;;;;;5072978;28;20195;-90
2021/10/06 09:00:59;;;;;;;8.10;3.73;;;13.10;79.60;;;;;;5074255;28;20166;-90
2021/10/06 09:03:30;;;;;;;9.40;3.33;;;13.20;80.40;;;;;;5072900;28;20202;-90
2021/10/06 09:06:10;;;;;;;5.70;2.80;;;13.30;80.10;;;;;;5072972;28;20179;-90
2021/10/06 09:08:38;;;;;;;5.53;2.90;;;13.40;79.00;;;;;;5073569;28;20195;-90
2021/10/06 09:11:06;;;;;;;4.53;2.40;;;13.30;79.50;;;;;;5072683;28;20209;-90
2021/10/06 09:13:34;;;;;;;7.57;3.00;;;13.30;77.40;;;;;;5073416;28;20568;-90
2021/10/06 09:16:00;;;;;;;6.47;2.70;;;13.60;78.30;;;;;;5072604;28;20271;-90
2021/10/06 09:18:29;;;;;;;6.53;3.47;;;13.50;78.10;;;;;;5072336;28;20274;-90
2021/10/06 09:21:02;;;;;;;9.60;3.83;;;13.50;78.50;;;;;;5072574;28;20179;-89
2021/10/06 09:23:29;;;;;;;3.87;2.60;;;13.70;77.60;;;;;;5073442;28;20501;-89
2021/10/06 09:26:05;;;;;;;6.90;3.20;;;13.70;76.10;;;;;;5072372;28;20183;-89
2021/10/06 09:28:38;;;;;;;6.90;3.53;;;13.80;76.90;;;;;;5072507;28;20199;-89
2021/10/06 09:31:18;;;;;;;5.87;2.50;;;14.00;76.40;;;;;;5072263;28;20281;-89
2021/10/06 09:33:55;;;;;;;4.03;2.03;;;14.00;75.80;;;;;;5072327;28;20191;-91
2021/10/06 09:36:29;;;;;;;6.10;2.40;;;14.10;76.10;;;;;;5073557;28;20159;-91
2021/10/06 09:39:14;;;;;;;7.30;2.50;;;13.90;76.20;;;;;;5072369;28;20229;-90
2021/10/06 09:41:47;;;;;;;8.17;2.40;;;13.90;76.00;;;;;;5072212;28;20171;-89
2021/10/06 09:44:19;;;;;;;5.80;2.43;;;13.90;76.70;;;;;;5072677;28;20163;-89
2021/10/06 09:47:00;;;;;;;5.37;2.30;;;13.80;75.40;;;;;;5074291;28;20158;-89
2021/10/06 09:49:28;;;;;;;5.93;1.93;;;13.80;74.80;;;;;;5072439;28;20191;-90
2021/10/06 09:52:16;;;;;;;5.07;2.10;;;13.80;74.70;;;;;;5073051;28;20199;-90
2021/10/06 09:54:56;;;;;;;6.80;2.40;;;14.00;75.20;;;;;;5077692;28;20187;-89
2021/10/06 09:57:28;;;;;;;6.77;2.10;;;14.00;75.60;;;;;;5077032;28;20151;-89
2021/10/06 09:59:55;;;;;;;3.90;1.90;;;14.00;75.40;;;;;;5076889;28;20211;-90
2021/10/06 10:02:21;;;;;;;7.40;2.37;;;14.00;75.00;;;;;;5076234;28;20176;-90
2021/10/06 10:04:47;;;;;;;4.53;2.10;;;13.90;75.90;;;;;;5076983;28;20186;-91
2021/10/06 10:07:14;;;;;;;3.17;1.77;;;13.80;75.70;;;;;;5078471;28;20190;-90
2021/10/06 10:09:41;;;;;;;6.77;1.90;;;14.00;75.90;;;;;;5078003;28;20263;-91
2021/10/06 10:12:09;;;;;;;5.00;1.93;;;14.10;76.20;;;;;;5077879;28;20179;-90
2021/10/06 10:14:34;;;;;;;6.00;2.00;;;14.20;73.90;;;;;;5076552;28;20195;-89
2021/10/06 10:17:00;;;;;;;6.00;2.10;;;14.40;74.10;;;;;;5076959;28;20197;-89
2021/10/06 10:19:27;;;;;;;9.47;2.20;;;14.50;72.80;;;;;;5076199;28;20198;-89
2021/10/06 10:21:55;;;;;;;3.83;2.13;;;14.70;72.10;;;;;;5077747;28;20174;-88
2021/10/06 10:24:24;;;;;;;5.27;2.47;;;14.40;72.30;;;;;;5076625;28;20639;-90
2021/10/06 10:26:59;;;;;;;2.80;1.83;;;14.10;72.80;;;;;;5076333;28;20236;-89
2021/10/06 10:29:34;;;;;;;9.47;2.17;;;14.00;73.70;;;;;;5076063;28;20190;-89
2021/10/06 10:32:11;;;;;;;5.03;1.90;;;13.90;74.10;;;;;;5075934;28;20179;-90
2021/10/06 10:35:01;;;;;;;5.93;2.17;;;13.80;73.50;;;;;;5075166;28;20187;-90
2021/10/06 10:37:48;;;;;;;6.33;2.23;;;13.80;74.70;;;;;;5076279;28;20148;-88
2021/10/06 10:40:32;;;;;;;5.83;2.10;;;13.80;74.40;;;;;;5075213;28;20547;-88
2021/10/06 10:43:06;;;;;;;7.13;2.20;;;13.90;75.40;;;;;;5074748;28;20178;-87
2021/10/06 10:45:58;;;;;;;6.73;3.07;;;14.00;76.10;;;;;;5075496;28;20235;-87
2021/10/06 10:48:48;;;;;;;10.07;2.53;;;14.10;76.00;;;;;;5076072;28;20191;-88
2021/10/06 10:51:14;;;;;;;7.13;2.53;;;14.10;73.90;;;;;;5072152;28;20607;-88
2021/10/06 10:54:00;;;;;;;3.53;1.87;;;14.10;73.90;;;;;;5074612;28;20199;-88
2021/10/06 10:56:41;;;;;;;6.33;2.73;;;14.10;73.40;;;;;;5074468;28;20240;-88
2021/10/06 10:59:15;;;;;;;3.40;2.07;;;14.10;73.10;;;;;;5075554;28;20213;-87
2021/10/06 11:01:47;;;;;;;9.23;2.50;;;14.10;72.70;;;;;;5075248;28;20170;-87
2021/10/06 11:04:24;;;;;;;9.90;2.20;;;14.10;73.30;;;;;;5075027;28;20183;-88
2021/10/06 11:06:53;;;;;;;5.67;2.50;;;14.20;73.30;;;;;;5074439;28;20305;-88
2021/10/06 11:09:31;;;;;;;3.93;2.30;;;14.20;73.50;;;;;;5074573;28;20195;-88
2021/10/06 11:12:06;;;;;;;3.80;2.10;;;14.20;72.80;;;;;;5074432;28;20183;-88
2021/10/06 11:14:38;;;;;;;4.93;2.17;;;14.30;72.80;;;;;;5074500;28;20574;-88
2021/10/06 11:17:07;;;;;;;4.03;1.97;;;14.30;72.50;;;;;;5074265;28;20305;-88
2021/10/06 11:19:41;;;;;;;9.20;2.00;;;14.30;72.80;;;;;;5075557;28;20197;-88
2021/10/06 11:22:22;;;;;;;6.17;2.37;;;14.30;73.80;;;;;;5074261;28;20552;-88
2021/10/06 11:24:59;;;;;;;4.27;2.20;;;14.30;73.50;;;;;;5074045;28;20182;-88
2021/10/06 11:27:28;;;;;;;5.77;2.30;;;14.50;74.20;;;;;;5074246;28;20526;-88
2021/10/06 11:29:56;;;;;;;6.27;2.30;;;14.40;74.50;;;;;;5075486;28;20220;-88
2021/10/06 11:32:22;;;;;;;5.83;2.20;;;14.30;74.70;;;;;;5074306;28;20670;-89
2021/10/06 11:34:54;;;;;;;6.67;2.50;;;14.30;73.80;;;;;;5073989;28;20645;-89
2021/10/06 11:37:25;;;;;;;4.07;2.40;;;14.30;72.60;;;;;;5073974;28;20191;-88
2021/10/06 11:39:51;;;;;;;6.47;2.60;;;14.30;72.90;;;;;;5073740;28;20199;-88
2021/10/06 11:42:17;;;;;;;3.77;2.20;;;14.20;72.20;;;;;;5074938;28;20179;-88
2021/10/06 11:44:44;;;;;;;5.67;1.73;;;14.20;73.00;;;;;;5073709;28;20168;-88
2021/10/06 11:47:18;;;;;;;9.13;2.00;;;14.20;73.30;;;;;;5073811;28;20186;-88
2021/10/06 11:49:46;;;;;;;4.00;1.80;;;14.20;74.60;;;;;;5073880;28;20252;-89
2021/10/06 11:52:13;;;;;;;6.13;2.53;;;14.20;75.00;;;;;;5073939;28;20175;-89
2021/10/06 11:54:40;;;;;;;6.37;2.20;;;14.30;75.30;;;;;;5073303;28;20211;-89
2021/10/06 11:57:08;;;;;;;8.53;2.07;;;14.30;75.50;;;;;;5073404;28;20172;-88
2021/10/06 11:59:35;;;;;;;6.80;2.10;;;14.30;75.10;;;;;;5074748;28;20214;-89
2021/10/06 12:02:04;;;;;;;4.80;2.20;;;14.50;76.00;;;;;;5073099;28;20167;-89
2021/10/06 12:04:32;;;;;;;3.83;1.73;;;14.50;74.10;;;;;;5074363;28;20541;-88
2021/10/06 12:07:06;;;;;;;5.73;2.07;;;14.50;74.40;;;;;;5073375;28;20187;-89
2021/10/06 12:09:37;;;;;;;6.27;2.00;;;14.50;74.30;;;;;;5073204;28;20773;-89
2021/10/06 12:12:11;;;;;;;4.83;1.97;;;14.40;73.90;;;;;;5074519;28;20177;-89
2021/10/06 12:14:47;;;;;;;5.13;1.87;;;14.40;74.70;;;;;;5073447;28;20282;-89
2021/10/06 12:17:17;;;;;;;5.57;2.30;;;14.30;73.40;;;;;;5073368;28;20167;-89
2021/10/06 12:20:00;;;;;;;6.40;1.83;;;14.20;73.90;;;;;;5073322;28;20279;-89
2021/10/06 12:22:37;;;;;;;4.90;1.80;;;14.20;74.50;;;;;;5073280;28;20670;-88
2021/10/06 12:25:16;;;;;;;4.97;1.70;;;14.10;75.10;;;;;;5073295;28;20527;-89
2021/10/06 12:27:51;;;;;;;7.87;2.03;;;14.10;75.50;;;;;;5072803;28;20179;-87
2021/10/06 12:30:27;;;;;;;6.63;2.00;;;14.00;75.40;;;;;;5072570;28;20170;-88
2021/10/06 12:33:04;;;;;;;6.97;1.80;;;14.00;75.60;;;;;;5074848;28;20516;-88
2021/10/06 12:35:40;;;;;;;6.70;2.60;;;13.90;75.90;;;;;;5073739;28;20239;-88
2021/10/06 12:38:06;;;;;;;4.57;2.77;;;13.80;77.50;;;;;;5072639;28;20198;-87
2021/10/06 12:40:41;;;;;;;3.70;1.77;;;13.80;77.90;;;;;;5072667;28;20167;-88